createdAt,value
2022-09-07T00:01:19.917Z,0.154280007
2022-09-07T00:02:22.897Z,0.056840003
2022-09-07T00:03:20.614Z,0.129920006
2022-09-07T00:04:18.013Z,0.121800005
2022-09-07T00:05:25.752Z,0.056840003
2022-09-07T00:06:20.915Z,0.129920006
2022-09-07T00:07:21.619Z,0.016240001
2022-09-07T00:08:20.806Z,0.105560005
2022-09-07T00:09:18.154Z,0.089320004
2022-09-07T00:10:16.518Z,0.154280007
2022-09-07T00:11:11.561Z,0.113680005
2022-09-07T00:12:10.590Z,0.154280007
2022-09-07T00:13:08.368Z,0.113680005
2022-09-07T00:14:10.466Z,0.105560005
2022-09-07T00:15:04.700Z,0.146160007
2022-09-07T00:16:03.802Z,0.081200004
2022-09-07T00:17:00.149Z,0.056840003
2022-09-07T00:18:35.250Z,0.089320004
2022-09-07T00:21:38.829Z,0.089320004
2022-09-07T00:22:37.521Z,0.064960003
2022-09-07T00:23:41.317Z,0.032480001
2022-09-07T00:24:35.545Z,0.129920006
2022-09-07T00:26:31.467Z,0.089320004
2022-09-07T00:27:32.572Z,0.113680005
2022-09-07T00:28:29.910Z,0.089320004
2022-09-07T00:29:27.881Z,0.064960003
2022-09-07T00:30:23.357Z,0.089320004
2022-09-07T00:31:22.394Z,0.032480001
2022-09-07T00:32:15.947Z,0.113680005
2022-09-07T00:33:17.882Z,0.121800005
2022-09-07T00:34:11.362Z,0.073080003
2022-09-07T00:35:09.291Z,0.016240001
2022-09-07T00:36:04.468Z,0.089320004
2022-09-07T00:37:02.881Z,0.073080003
2022-09-07T00:37:57.119Z,0.121800005
2022-09-07T00:38:59.170Z,0.105560005
2022-09-07T00:41:01.692Z,0.064960003
2022-09-07T00:41:53.380Z,0.186760008
2022-09-07T00:42:55.134Z,0.097440004
2022-09-07T00:43:50.364Z,0.073080003
2022-09-07T00:44:48.592Z,0.073080003
2022-09-07T00:46:53.212Z,0.040600002
2022-09-07T00:47:47.451Z,0.129920006
2022-09-07T00:48:51.152Z,0.105560005
2022-09-07T00:49:44.325Z,0.138040006
2022-09-07T00:51:36.043Z,0.113680005
2022-09-07T00:52:33.010Z,0.081200004
2022-09-07T00:53:31.955Z,0.105560005
2022-09-07T00:56:16.953Z,0.073080003
2022-09-07T00:57:17.875Z,0.056840003
2022-09-07T00:58:19.314Z,0.089320004
2022-09-07T00:59:13.588Z,0.081200004
2022-09-07T01:01:20.234Z,0.040600002
2022-09-07T01:02:26.036Z,0.064960003
2022-09-07T01:03:25.102Z,0.073080003
2022-09-07T01:04:28.082Z,0.105560005
2022-09-07T01:06:31.777Z,0.016240001
2022-09-07T01:07:37.409Z,0.105560005
2022-09-07T01:08:32.698Z,0.032480001
2022-09-07T01:09:35.792Z,0.089320004
2022-09-07T01:10:36.494Z,0.056840003
2022-09-07T01:11:40.212Z,0.138040006
2022-09-07T01:12:39.488Z,0.146160007
2022-09-07T01:13:42.208Z,0.113680005
2022-09-07T01:14:41.089Z,0.097440004
2022-09-07T01:16:36.486Z,0.097440004
2022-09-07T01:17:35.920Z,0.056840003
2022-09-07T01:18:38.138Z,0.064960003
2022-09-07T01:19:32.342Z,0.081200004
2022-09-07T01:20:37.305Z,0.040600002
2022-09-07T01:21:28.950Z,0.048720002
2022-09-07T01:22:28.827Z,0.097440004
2022-09-07T01:23:25.385Z,0.089320004
2022-09-07T01:24:22.936Z,0.056840003
2022-09-07T01:26:19.545Z,0.073080003
2022-09-07T01:27:21.347Z,0.064960003
2022-09-07T01:29:25.203Z,0.178640008
2022-09-07T01:30:22.573Z,0.121800005
2022-09-07T01:31:22.747Z,0.089320004
2022-09-07T01:32:18.198Z,0.064960003
2022-09-07T01:33:19.757Z,0.089320004
2022-09-07T01:34:15.025Z,0.121800005
2022-09-07T01:35:15.296Z,0.073080003
2022-09-07T01:36:11.911Z,0.073080003
2022-09-07T01:37:13.418Z,0.097440004
2022-09-07T01:38:12.781Z,0.00812
2022-09-07T01:39:15.413Z,0.113680005
2022-09-07T01:40:09.750Z,0.064960003
2022-09-07T01:41:09.633Z,0.097440004
2022-09-07T01:42:04.783Z,0.064960003
2022-09-07T01:43:04.549Z,0.121800005
2022-09-07T01:44:00.369Z,0.105560005
2022-09-07T01:45:09.223Z,0.113680005
2022-09-07T01:46:07.240Z,0.105560005
2022-09-07T01:47:07.246Z,0.129920006
2022-09-07T01:48:09.711Z,0.081200004
2022-09-07T01:49:06.682Z,0.113680005
2022-09-07T01:51:03.493Z,0.064960003
2022-09-07T01:52:06.237Z,0.154280007
2022-09-07T01:53:01.449Z,0.089320004
2022-09-07T01:54:06.833Z,0.064960003
2022-09-07T01:56:05.979Z,0.105560005
2022-09-07T01:58:10.385Z,0.032480001
2022-09-07T01:59:10.924Z,0.081200004
2022-09-07T02:01:07.390Z,0.097440004
2022-09-07T02:02:10.091Z,0.073080003
2022-09-07T02:03:05.561Z,0.016240001
2022-09-07T02:04:06.065Z,0.032480001
2022-09-07T02:05:04.071Z,0.138040006
2022-09-07T02:06:04.638Z,0.064960003
2022-09-07T02:07:00.912Z,0.138040006
2022-09-07T02:08:03.054Z,0.064960003
2022-09-07T02:09:03.900Z,0.138040006
2022-09-07T02:11:08.942Z,0.032480001
2022-09-07T02:12:04.370Z,0.097440004
2022-09-07T02:13:02.841Z,0.138040006
2022-09-07T02:14:11.227Z,0.064960003
2022-09-07T02:16:10.739Z,0.048720002
2022-09-07T02:17:13.799Z,0.048720002
2022-09-07T02:18:13.834Z,0.064960003
2022-09-07T02:19:09.235Z,0.121800005
2022-09-07T02:20:11.553Z,0.073080003
2022-09-07T02:21:11.065Z,0.121800005
2022-09-07T02:22:17.514Z,0.113680005
2022-09-07T02:23:17.839Z,0.089320004
2022-09-07T02:24:10.415Z,0.105560005
2022-09-07T02:26:05.864Z,0.064960003
2022-09-07T02:27:10.292Z,0.064960003
2022-09-07T02:29:37.693Z,0.194880009
2022-09-07T02:30:38.450Z,0.089320004
2022-09-07T02:31:41.309Z,0.162400007
2022-09-07T02:32:40.381Z,0.089320004
2022-09-07T02:33:41.449Z,0.048720002
2022-09-07T02:34:41.526Z,0.089320004
2022-09-07T02:36:46.510Z,0.048720002
2022-09-07T02:37:47.549Z,0.113680005
2022-09-07T02:38:49.318Z,0.040600002
2022-09-07T02:39:48.911Z,0.073080003
2022-09-07T02:41:48.730Z,0.097440004
2022-09-07T02:42:45.105Z,0.097440004
2022-09-07T02:43:46.214Z,0.105560005
2022-09-07T02:44:45.432Z,0.186760008
2022-09-07T02:45:50.751Z,0.129920006
2022-09-07T02:46:47.029Z,0.138040006
2022-09-07T02:47:47.971Z,0.097440004
2022-09-07T02:48:46.408Z,0.056840003
2022-09-07T02:49:49.975Z,0.097440004
2022-09-07T02:51:51.157Z,0.089320004
2022-09-07T02:52:53.237Z,0.105560005
2022-09-07T02:53:51.606Z,0.089320004
2022-09-07T02:54:54.474Z,0.113680005
2022-09-07T02:56:54.263Z,0.089320004
2022-09-07T02:57:54.351Z,0.089320004
2022-09-07T02:58:52.726Z,0.089320004
2022-09-07T02:59:54.563Z,0.089320004
2022-09-07T03:03:00.494Z,0.073080003
2022-09-07T03:04:04.692Z,0.081200004
2022-09-07T03:06:07.583Z,0.113680005
2022-09-07T03:07:03.862Z,0.105560005
2022-09-07T03:08:04.014Z,0.073080003
2022-09-07T03:08:59.790Z,0.178640008
2022-09-07T03:10:02.792Z,0.138040006
2022-09-07T03:10:59.389Z,0.056840003
2022-09-07T03:12:00.873Z,0.081200004
2022-09-07T03:12:56.480Z,0.121800005
2022-09-07T03:13:58.068Z,0.064960003
2022-09-07T03:14:56.883Z,0.040600002
2022-09-07T03:16:55.094Z,0.032480001
2022-09-07T03:17:56.566Z,0.121800005
2022-09-07T03:18:54.910Z,0.00812
2022-09-07T03:20:05.424Z,13.34116077
2022-09-07T03:21:09.672Z,0.105560005
2022-09-07T03:22:05.767Z,0.113680005
2022-09-07T03:23:10.973Z,0.056840003
2022-09-07T03:24:11.521Z,0.064960003
2022-09-07T03:26:13.718Z,0.040600002
2022-09-07T03:27:17.295Z,0.073080003
2022-09-07T03:28:20.311Z,0.081200004
2022-09-07T03:29:22.389Z,0.081200004
2022-09-07T03:30:30.344Z,0.121800005
2022-09-07T03:31:26.467Z,0.121800005
2022-09-07T03:32:26.003Z,0.138040006
2022-09-07T03:33:30.249Z,0.097440004
2022-09-07T03:34:33.161Z,0.081200004
2022-09-07T03:35:35.795Z,0.097440004
2022-09-07T03:36:31.606Z,0.138040006
2022-09-07T03:37:31.504Z,0.040600002
2022-09-07T03:38:33.909Z,0.073080003
2022-09-07T03:39:52.551Z,0.056840003
2022-09-07T03:41:47.057Z,0.081200004
2022-09-07T03:44:33.883Z,0.024360001
2022-09-07T03:46:29.590Z,0.056840003
2022-09-07T03:47:24.781Z,0.154280007
2022-09-07T03:48:25.556Z,0.064960003
2022-09-07T03:49:21.961Z,0.00812
2022-09-07T03:51:17.027Z,0.081200004
2022-09-07T03:52:17.222Z,0.024360001
2022-09-07T03:53:12.941Z,0.073080003
2022-09-07T03:54:15.762Z,0.186760008
2022-09-07T03:55:09.947Z,0.048720002
2022-09-07T03:56:18.814Z,0.048720002
2022-09-07T03:57:15.479Z,0.138040006
2022-09-07T03:58:11.622Z,0.097440004
2022-09-07T03:59:13.912Z,0.081200004
2022-09-07T04:01:17.074Z,0.089320004
2022-09-07T04:02:15.207Z,0.178640008
2022-09-07T04:03:11.758Z,0.203000009
2022-09-07T04:04:11.694Z,0.032480001
2022-09-07T04:05:06.231Z,0.162400007
2022-09-07T04:06:07.615Z,0.048720002
2022-09-07T04:07:01.915Z,0.146160007
2022-09-07T04:08:00.615Z,0.121800005
2022-09-07T04:08:56.880Z,0.081200004
2022-09-07T04:09:56.178Z,0.097440004
2022-09-07T04:10:54.266Z,0.064960003
2022-09-07T04:11:55.409Z,0.162400007
2022-09-07T04:12:49.946Z,0.032480001
2022-09-07T04:13:52.511Z,0.064960003
2022-09-07T04:14:45.285Z,0.056840003
2022-09-07T04:15:53.911Z,0.113680005
2022-09-07T04:16:55.071Z,0.089320004
2022-09-07T04:17:47.163Z,0.105560005
2022-09-07T04:18:50.117Z,0.178640008
2022-09-07T04:19:51.728Z,0.056840003
2022-09-07T04:20:53.129Z,0.081200004
2022-09-07T04:23:01.729Z,0.073080003
2022-09-07T04:24:02.582Z,0.056840003
2022-09-07T04:24:58.223Z,0.064960003
2022-09-07T04:26:00.744Z,0.032480001
2022-09-07T04:26:57.405Z,0.073080003
2022-09-07T04:28:02.637Z,0.138040006
2022-09-07T04:28:58.248Z,0.064960003
2022-09-07T04:29:58.947Z,0.097440004
2022-09-07T04:30:56.236Z,0.089320004
2022-09-07T04:31:56.631Z,0.081200004
2022-09-07T04:32:52.115Z,0.138040006
2022-09-07T04:33:56.689Z,0.089320004
2022-09-07T04:34:51.037Z,0.121800005
2022-09-07T04:36:49.026Z,0.016240001
2022-09-07T04:37:48.180Z,0.129920006
2022-09-07T04:38:44.729Z,0.073080003
2022-09-07T04:39:48.207Z,0.089320004
2022-09-07T04:41:46.940Z,0.129920006
2022-09-07T04:42:42.366Z,0.048720002
2022-09-07T04:43:44.212Z,0.040600002
2022-09-07T04:44:44.400Z,0.048720002
2022-09-07T04:45:45.990Z,0.129920006
2022-09-07T04:46:41.203Z,0.089320004
2022-09-07T04:47:47.027Z,0.024360001
2022-09-07T04:48:44.641Z,0.073080003
2022-09-07T04:49:42.595Z,0.138040006
2022-09-07T04:51:37.702Z,0.105560005
2022-09-07T04:52:38.001Z,0.097440004
2022-09-07T04:53:37.201Z,0.121800005
2022-09-07T04:54:37.225Z,0.073080003
2022-09-07T04:55:34.196Z,0.089320004
2022-09-07T04:56:37.488Z,0.097440004
2022-09-07T04:57:31.716Z,0.081200004
2022-09-07T04:58:29.560Z,0.259840012
2022-09-07T04:59:30.286Z,0.113680005
2022-09-07T05:01:35.243Z,0.105560005
2022-09-07T05:02:27.334Z,0.129920006
2022-09-07T05:03:33.144Z,0.073080003
2022-09-07T05:06:48.756Z,0.138040006
2022-09-07T05:07:52.450Z,0.138040006
2022-09-07T05:08:51.309Z,0.097440004
2022-09-07T05:09:48.467Z,0.113680005
2022-09-07T05:11:44.943Z,0.081200004
2022-09-07T05:12:45.904Z,0.178640008
2022-09-07T05:13:41.171Z,0.056840003
2022-09-07T05:14:42.963Z,0.097440004
2022-09-07T05:16:37.457Z,0.081200004
2022-09-07T05:17:37.651Z,0.138040006
2022-09-07T05:18:38.979Z,0.064960003
2022-09-07T05:19:36.947Z,0.105560005
2022-09-07T05:20:41.208Z,0.113680005
2022-09-07T05:21:33.811Z,0.138040006
2022-09-07T05:22:36.696Z,0.121800005
2022-09-07T05:23:32.418Z,0.089320004
2022-09-07T05:24:33.930Z,0.178640008
2022-09-07T05:25:32.386Z,0.154280007
2022-09-07T05:26:28.477Z,0.113680005
2022-09-07T05:27:28.228Z,0.113680005
2022-09-07T05:28:26.309Z,0.073080003
2022-09-07T05:31:27.128Z,0.129920006
2022-09-07T05:32:24.551Z,0.048720002
2022-09-07T05:33:19.288Z,0.121800005
2022-09-07T05:35:19.524Z,0.089320004
2022-09-07T05:36:20.779Z,0.146160007
2022-09-07T05:37:20.879Z,0.186760008
2022-09-07T05:38:19.549Z,0.105560005
2022-09-07T05:39:19.666Z,0.243600011
2022-09-07T05:40:14.403Z,0.21924001
2022-09-07T05:41:18.065Z,0.251720011
2022-09-07T05:42:12.808Z,0.154280007
2022-09-07T05:43:21.149Z,0.129920006
2022-09-07T05:45:13.732Z,0.113680005
2022-09-07T05:48:24.684Z,0.276080012
2022-09-07T05:49:24.077Z,0.146160007
2022-09-07T05:51:23.380Z,0.129920006
2022-09-07T05:52:23.810Z,0.178640008
2022-09-07T05:53:22.696Z,0.138040006
2022-09-07T05:54:25.581Z,0.154280007
2022-09-07T05:55:30.015Z,0.138040006
2022-09-07T05:55:30.433Z,0.138040006
2022-09-07T05:56:23.111Z,0.194880009
2022-09-07T05:57:22.873Z,0.162400007
2022-09-07T05:58:22.760Z,0.276080012
2022-09-07T05:59:18.553Z,0.243600011
2022-09-07T06:00:24.168Z,0.154280007
2022-09-07T06:01:19.404Z,0.138040006
2022-09-07T06:02:18.869Z,0.121800005
2022-09-07T06:03:14.136Z,0.381640017
2022-09-07T06:04:16.544Z,0.267960012
2022-09-07T06:05:11.912Z,0.105560005
2022-09-07T06:06:11.029Z,0.243600011
2022-09-07T06:07:21.670Z,0.300440013
2022-09-07T06:07:23.205Z,0.300440013
2022-09-07T06:07:24.123Z,0.300440013
2022-09-07T06:08:10.189Z,0.300440013
2022-09-07T06:09:05.402Z,0.22736001
2022-09-07T06:11:03.105Z,0.308560014
2022-09-07T06:12:07.308Z,0.113680005
2022-09-07T06:13:03.482Z,0.162400007
2022-09-07T06:14:06.087Z,0.235480011
2022-09-07T06:14:58.681Z,0.186760008
2022-09-07T06:16:03.836Z,0.129920006
2022-09-07T06:16:56.420Z,0.308560014
2022-09-07T06:17:57.042Z,0.373520017
2022-09-07T06:19:00.014Z,0.129920006
2022-09-07T06:20:03.239Z,0.324800014
2022-09-07T06:20:58.551Z,0.138040006
2022-09-07T06:22:01.113Z,0.332920015
2022-09-07T06:22:57.168Z,0.357280016
2022-09-07T06:23:57.799Z,0.21924001
2022-09-07T06:24:53.360Z,0.324800014
2022-09-07T06:25:50.645Z,0.349160016
2022-09-07T06:26:51.626Z,0.316680014
2022-09-07T06:28:09.542Z,0.284200013
2022-09-07T06:29:08.364Z,0.397880018
2022-09-07T06:30:12.185Z,0.276080012
2022-09-07T06:31:05.636Z,0.316680014
2022-09-07T06:33:55.816Z,0.324800014
2022-09-07T06:34:54.043Z,0.324800014
2022-09-07T06:35:54.189Z,0.357280016
2022-09-07T06:36:50.358Z,0.373520017
2022-09-07T06:37:57.440Z,0.341040015
2022-09-07T06:38:50.254Z,0.43848002
2022-09-07T06:39:52.287Z,0.535920024
2022-09-07T06:40:47.783Z,0.414120018
2022-09-07T06:42:04.918Z,0.584640026
2022-09-07T06:43:35.882Z,0.495320022
2022-09-07T06:44:32.283Z,0.519680023
2022-09-07T06:45:33.568Z,0.414120018
2022-09-07T06:48:45.848Z,-0.073080003
2022-09-07T06:49:08.591Z,0.45472002
2022-09-07T06:50:09.474Z,0.470960021
2022-09-07T06:51:06.005Z,0.576520026
2022-09-07T06:52:07.234Z,0.349160016
2022-09-07T06:55:01.786Z,0.462840021
2022-09-07T06:56:04.633Z,0.259840012
2022-09-07T06:57:02.855Z,0.45472002
2022-09-07T06:57:59.269Z,0.45472002
2022-09-07T06:59:00.475Z,0.462840021
2022-09-07T06:59:55.877Z,0.738920033
2022-09-07T07:00:56.783Z,0.535920024
2022-09-07T07:01:53.777Z,0.657720029
2022-09-07T07:02:56.924Z,0.617120028
2022-09-07T07:03:53.153Z,0.779520035
2022-09-07T07:04:53.295Z,0.389760017
2022-09-07T07:06:49.873Z,0.771400034
2022-09-07T07:07:45.055Z,0.617120028
2022-09-07T07:08:45.206Z,0.88508004
2022-09-07T07:09:40.737Z,0.803880036
2022-09-07T07:10:41.058Z,0.584640026
2022-09-07T07:11:36.630Z,0.730800033
2022-09-07T07:13:34.600Z,1.372280121
2022-09-07T07:14:39.638Z,1.705200076
2022-09-07T07:14:44.992Z,1.705200076
2022-09-07T07:16:28.841Z,1.583400011
2022-09-07T07:17:29.187Z,1.624000072
2022-09-07T07:18:24.665Z,1.729560137
2022-09-07T07:19:25.216Z,1.981280088
2022-09-07T07:20:20.908Z,2.419760227
2022-09-07T07:22:45.088Z,3.930080175
2022-09-07T07:22:45.504Z,3.930080175
2022-09-07T07:22:46.031Z,3.930080175
2022-09-07T07:23:22.503Z,4.392920017
2022-09-07T07:24:16.179Z,3.532200098
2022-09-07T07:25:19.845Z,3.256120205
2022-09-07T07:26:13.329Z,3.109960079
2022-09-07T07:27:14.387Z,3.79204011
2022-09-07T07:29:10.443Z,3.353560209
2022-09-07T07:30:11.766Z,4.189920425
2022-09-07T07:31:12.042Z,3.426640034
2022-09-07T07:31:13.456Z,3.426640034
2022-09-07T07:32:12.281Z,1.023120046
2022-09-07T07:33:07.300Z,0.90132004
2022-09-07T07:34:06.361Z,2.427880049
2022-09-07T07:35:04.474Z,2.728320122
2022-09-07T07:37:00.810Z,1.883840084
2022-09-07T07:40:21.403Z,-0.081200004
2022-09-07T07:40:26.441Z,-0.081200004
2022-09-07T07:41:56.451Z,2.639000177
2022-09-07T07:42:03.119Z,2.639000177
2022-09-07T07:42:05.728Z,2.639000177
2022-09-07T07:42:34.006Z,2.387279987
2022-09-07T07:43:33.986Z,2.265480042
2022-09-07T07:44:30.258Z,2.947560072
2022-09-07T07:45:56.782Z,2.135560036
2022-09-07T07:46:28.140Z,2.273600101
2022-09-07T07:47:28.426Z,2.119320154
2022-09-07T07:49:24.983Z,1.56716013
2022-09-07T07:50:31.079Z,1.250480056
2022-09-07T07:50:33.157Z,1.250480056
2022-09-07T07:50:35.523Z,1.250480056
2022-09-07T07:53:41.900Z,1.924440145
2022-09-07T07:54:14.512Z,2.24924016
2022-09-07T07:57:13.241Z,4.303600311
2022-09-07T07:58:09.716Z,4.644639969
2022-09-07T07:59:15.784Z,5.481000423
2022-09-07T08:00:12.721Z,6.341720104
2022-09-07T08:01:07.209Z,4.701480389
2022-09-07T08:02:07.883Z,4.441640377
2022-09-07T08:03:04.089Z,3.377920151
2022-09-07T08:04:04.826Z,3.637760162
2022-09-07T08:05:00.929Z,2.362920046
2022-09-07T08:06:59.913Z,1.867600083
2022-09-07T08:07:58.969Z,1.006880045
2022-09-07T08:08:54.340Z,0.820120037
2022-09-07T08:09:53.184Z,0.722680032
2022-09-07T08:11:49.437Z,0.747040033
2022-09-07T08:12:49.493Z,0.617120028
2022-09-07T08:13:44.646Z,0.698320031
2022-09-07T08:14:46.962Z,0.527800024
2022-09-07T08:15:39.591Z,0.43848002
2022-09-07T08:16:42.826Z,0.470960021
2022-09-07T08:17:35.559Z,0.414120018
2022-09-07T08:18:37.897Z,0.462840021
2022-09-07T08:19:31.271Z,0.44660002
2022-09-07T08:20:33.274Z,0.381640017
2022-09-07T08:21:31.669Z,0.389760017
2022-09-07T08:22:26.542Z,0.316680014
2022-09-07T08:23:26.682Z,0.45472002
2022-09-07T08:24:21.857Z,0.503440022
2022-09-07T08:25:21.345Z,0.406000018
2022-09-07T08:27:19.111Z,0.552160025
2022-09-07T08:28:11.986Z,0.44660002
2022-09-07T08:31:46.211Z,0.527800024
2022-09-07T08:32:40.796Z,0.812000036
2022-09-07T08:33:37.942Z,1.315440059
2022-09-07T08:34:37.658Z,1.364160061
2022-09-07T08:35:33.024Z,1.258599997
2022-09-07T08:36:35.385Z,1.153040051
2022-09-07T08:37:28.051Z,0.998760045
2022-09-07T08:38:27.101Z,0.836360037
2022-09-07T08:39:27.807Z,1.161159992
2022-09-07T08:40:22.090Z,1.063719988
2022-09-07T08:41:19.298Z,2.444120169
2022-09-07T08:42:19.448Z,2.143680096
2022-09-07T08:43:14.513Z,1.485960007
2022-09-07T08:44:14.283Z,1.006880045
2022-09-07T08:45:09.570Z,1.136800051
2022-09-07T08:46:07.956Z,2.062479973
2022-09-07T08:47:06.679Z,3.451000214
2022-09-07T08:48:01.778Z,1.57528007
2022-09-07T08:49:04.712Z,2.557800055
2022-09-07T08:49:57.428Z,2.094960213
2022-09-07T08:51:54.920Z,1.144920111
2022-09-07T08:52:52.279Z,1.388520002
2022-09-07T08:53:54.101Z,0.958160043
2022-09-07T08:54:47.240Z,0.950040042
2022-09-07T08:55:44.690Z,0.722680032
2022-09-07T08:57:20.598Z,1.161159992
2022-09-07T08:57:40.424Z,0.909440041
2022-09-07T08:58:49.196Z,0.941920042
2022-09-07T08:58:50.398Z,0.941920042
2022-09-07T08:58:51.975Z,0.941920042
2022-09-07T08:59:37.622Z,0.998760045
2022-09-07T09:01:34.003Z,1.136800051
2022-09-07T09:02:42.555Z,1.015000105
2022-09-07T09:02:44.007Z,1.015000105
2022-09-07T09:02:44.570Z,1.015000105
2022-09-07T09:03:32.414Z,0.998760045
2022-09-07T09:04:28.464Z,0.868840039
2022-09-07T09:05:27.257Z,1.291079998
2022-09-07T09:06:23.509Z,2.01376009
2022-09-07T09:07:22.982Z,2.159920216
2022-09-07T09:08:19.381Z,3.045000076
2022-09-07T09:09:22.131Z,1.624000072
2022-09-07T09:10:14.667Z,1.518440008
2022-09-07T09:12:09.622Z,1.063719988
2022-09-07T09:13:09.664Z,1.047480106
2022-09-07T09:14:12.037Z,0.88508004
2022-09-07T09:15:06.933Z,1.169280052
2022-09-07T09:16:47.399Z,-0.089320004
2022-09-07T09:17:24.740Z,3.361680031
2022-09-07T09:18:32.732Z,2.833880186
2022-09-07T09:19:23.361Z,3.410400152
2022-09-07T09:20:19.539Z,3.491600037
2022-09-07T09:22:15.051Z,1.932560086
2022-09-07T09:23:15.385Z,3.442880154
2022-09-07T09:24:11.166Z,4.173680305
2022-09-07T09:25:11.612Z,3.986920118
2022-09-07T09:27:09.260Z,6.106240273
2022-09-07T09:28:05.846Z,7.169960499
2022-09-07T09:29:07.115Z,7.096880436
2022-09-07T09:30:03.549Z,7.389200211
2022-09-07T09:31:04.819Z,6.122480392
2022-09-07T09:32:01.266Z,7.42980051
2022-09-07T09:33:02.272Z,5.148080349
2022-09-07T09:33:58.572Z,4.993800163
2022-09-07T09:34:56.709Z,5.131840229
2022-09-07T09:36:53.138Z,2.184280157
2022-09-07T09:37:51.352Z,2.69584012
2022-09-07T09:38:49.203Z,2.858240128
2022-09-07T09:39:54.467Z,2.541560173
2022-09-07T09:39:59.262Z,2.541560173
2022-09-07T09:40:46.166Z,4.02752018
2022-09-07T09:41:44.853Z,3.702720165
2022-09-07T09:42:42.579Z,2.842000008
2022-09-07T09:43:40.944Z,3.345440149
2022-09-07T09:44:38.846Z,3.126200199
2022-09-07T09:46:12.379Z,2.752680063
2022-09-07T09:46:35.473Z,2.565920115
2022-09-07T09:47:33.676Z,2.47660017
2022-09-07T09:48:32.077Z,2.297960043
2022-09-07T09:49:29.385Z,2.184280157
2022-09-07T09:52:30.725Z,2.338560104
2022-09-07T09:52:33.587Z,2.338560104
2022-09-07T09:52:44.933Z,2.338560104
2022-09-07T09:53:29.423Z,1.542800069
2022-09-07T09:54:22.925Z,1.485960007
2022-09-07T09:55:34.994Z,1.591520071
2022-09-07T09:55:40.906Z,1.591520071
2022-09-07T09:57:19.321Z,1.485960007
2022-09-07T10:00:21.340Z,1.185520053
2022-09-07T10:00:28.028Z,1.185520053
2022-09-07T10:00:29.308Z,1.185520053
2022-09-07T10:04:09.490Z,2.639000177
2022-09-07T10:04:14.601Z,2.639000177
2022-09-07T10:04:18.358Z,2.639000177
2022-09-07T10:06:37.239Z,1.153040051
2022-09-07T10:07:35.179Z,0.868840039
2022-09-07T10:08:34.756Z,0.828240037
2022-09-07T10:09:31.361Z,0.917560041
2022-09-07T10:10:29.574Z,0.88508004
2022-09-07T10:12:22.605Z,1.136800051
2022-09-07T10:13:23.724Z,1.445360065
2022-09-07T10:14:18.319Z,1.469720125
2022-09-07T10:15:17.902Z,0.88508004
2022-09-07T10:16:12.444Z,1.250480056
2022-09-07T10:17:11.919Z,1.526560068
2022-09-07T10:18:06.518Z,1.315440059
2022-09-07T10:19:06.010Z,1.973160028
2022-09-07T10:20:00.581Z,1.615880013
2022-09-07T10:21:55.250Z,1.697080135
2022-09-07T10:22:57.049Z,1.485960007
2022-09-07T10:23:49.299Z,1.656480074
2022-09-07T10:24:51.121Z,1.445360065
2022-09-07T10:26:43.015Z,1.78640008
2022-09-07T10:27:37.905Z,1.721440077
2022-09-07T10:29:17.293Z,1.55092001
2022-09-07T10:29:33.107Z,1.494080067
2022-09-07T10:30:33.099Z,1.461600065
2022-09-07T10:32:29.648Z,1.437240124
2022-09-07T10:33:21.975Z,1.599640131
2022-09-07T10:34:26.675Z,1.648360014
2022-09-07T10:34:28.432Z,1.648360014
2022-09-07T10:35:21.303Z,1.437240124
2022-09-07T10:36:16.659Z,1.502200127
2022-09-07T10:37:11.260Z,1.56716013
2022-09-07T10:38:09.202Z,1.34792006
2022-09-07T10:39:08.311Z,1.672720075
2022-09-07T10:40:02.892Z,1.299200058
2022-09-07T10:41:04.786Z,1.396640062
2022-09-07T10:41:57.490Z,1.57528007
2022-09-07T10:43:22.590Z,1.485960007
2022-09-07T10:43:52.829Z,1.477840066
2022-09-07T10:44:52.389Z,1.258599997
2022-09-07T10:45:47.712Z,1.136800051
2022-09-07T10:46:57.163Z,0.998760045
2022-09-07T10:46:58.920Z,0.998760045
2022-09-07T10:47:01.895Z,0.998760045
2022-09-07T10:47:44.152Z,1.299200058
2022-09-07T10:48:38.730Z,1.128679991
2022-09-07T10:50:22.296Z,1.266720057
2022-09-07T10:50:23.728Z,1.266720057
2022-09-07T10:53:41.331Z,1.153040051
2022-09-07T10:57:16.251Z,1.047480106
2022-09-07T10:58:12.944Z,1.218000054
2022-09-07T10:59:13.462Z,1.209880114
2022-09-07T11:00:13.223Z,0.812000036
2022-09-07T11:01:09.201Z,1.437240124
2022-09-07T11:02:11.486Z,1.144920111
2022-09-07T11:03:27.597Z,1.380400062
2022-09-07T11:03:32.380Z,1.380400062
2022-09-07T11:04:05.574Z,1.429120064
2022-09-07T11:05:07.583Z,1.388520002
2022-09-07T11:06:03.580Z,1.404760122
2022-09-07T11:07:12.408Z,1.177400112
2022-09-07T11:07:15.601Z,1.177400112
2022-09-07T11:08:06.679Z,1.331680059
2022-09-07T11:09:16.617Z,0.844480038
2022-09-07T11:09:18.373Z,0.844480038
2022-09-07T11:09:22.311Z,0.844480038
2022-09-07T11:10:00.497Z,1.291079998
2022-09-07T11:12:01.562Z,1.006880045
2022-09-07T11:12:04.074Z,1.006880045
2022-09-07T11:12:56.226Z,1.096199989
2022-09-07T11:14:11.849Z,1.494080067
2022-09-07T11:14:12.602Z,1.494080067
2022-09-07T11:14:13.045Z,1.494080067
2022-09-07T11:14:53.101Z,1.453480005
2022-09-07T11:15:49.444Z,1.429120064
2022-09-07T11:16:51.185Z,1.128679991
2022-09-07T11:17:49.334Z,1.404760122
2022-09-07T11:17:53.140Z,1.404760122
2022-09-07T11:18:48.763Z,1.453480005
2022-09-07T11:19:42.076Z,1.461600065
2022-09-07T11:20:41.877Z,1.136800051
2022-09-07T11:22:35.562Z,1.258599997
2022-09-07T11:23:40.766Z,1.055600047
2022-09-07T11:23:41.107Z,1.055600047
2022-09-07T11:24:34.417Z,1.209880114
2022-09-07T11:25:30.039Z,1.364160061
2022-09-07T11:27:25.451Z,1.315440059
2022-09-07T11:28:25.738Z,0.852600038
2022-09-07T11:29:29.557Z,1.169280052
2022-09-07T11:29:29.980Z,1.169280052
2022-09-07T11:30:24.280Z,0.974400043
2022-09-07T11:32:22.667Z,1.112440109
2022-09-07T11:33:15.957Z,1.421000004
2022-09-07T11:34:24.334Z,1.266720057
2022-09-07T11:34:25.855Z,1.266720057
2022-09-07T11:35:14.302Z,0.950040042
2022-09-07T11:36:12.503Z,1.047480106
2022-09-07T11:37:10.387Z,1.047480106
2022-09-07T11:38:06.554Z,1.088080049
2022-09-07T11:39:09.388Z,1.023120046
2022-09-07T11:40:02.194Z,0.982520044
2022-09-07T11:42:42.858Z,0.787640035
2022-09-07T11:44:36.557Z,1.079960108
2022-09-07T11:45:34.545Z,1.031239986
2022-09-07T11:47:38.646Z,0.803880036
2022-09-07T11:48:38.517Z,0.698320031
2022-09-07T11:49:33.031Z,1.079960108
2022-09-07T11:50:32.390Z,1.161159992
2022-09-07T11:52:27.950Z,1.161159992